createdAt,value
2017-04-02T07:20:15.446Z,12.20
2017-04-02T07:21:15.968Z,12.29
2017-04-02T07:22:16.480Z,12.39
2017-04-02T07:23:17.015Z,12.40
2017-04-02T07:24:17.523Z,12.43
2017-04-02T07:25:17.888Z,12.46
2017-04-02T07:26:18.565Z,12.47
2017-04-02T07:27:19.097Z,12.53
2017-04-02T07:28:19.622Z,12.61
2017-04-02T07:29:20.144Z,12.68
2017-04-02T07:30:20.520Z,12.75
2017-04-02T07:31:21.035Z,12.87
2017-04-02T07:32:21.556Z,12.92
2017-04-02T07:33:22.204Z,12.99
2017-04-02T07:34:22.730Z,13.12
2017-04-02T07:35:23.252Z,13.09
2017-04-02T07:36:23.642Z,13.23
2017-04-02T07:37:24.294Z,13.29
2017-04-02T07:38:24.662Z,13.27
2017-04-02T07:39:25.323Z,13.24
2017-04-02T07:40:25.708Z,13.28
2017-04-02T07:41:26.379Z,13.35
2017-04-02T07:42:26.880Z,13.34
2017-04-02T07:43:27.411Z,13.42
2017-04-02T07:44:27.916Z,13.49
2017-04-02T07:45:28.439Z,13.46
2017-04-02T07:46:28.814Z,13.47
2017-04-02T07:47:29.347Z,13.61
2017-04-02T07:48:29.999Z,13.80
2017-04-02T07:49:30.519Z,14.04
2017-04-02T07:50:31.061Z,14.22
2017-04-02T07:51:31.553Z,14.36
2017-04-02T07:52:31.944Z,14.46
2017-04-02T07:53:32.463Z,14.61
2017-04-02T07:54:33.115Z,14.71
2017-04-02T07:55:33.499Z,14.96
2017-04-02T07:56:34.159Z,14.95
2017-04-02T07:57:34.522Z,14.82
2017-04-02T07:58:35.065Z,14.65
2017-04-02T07:59:35.581Z,14.64
2017-04-02T08:00:36.241Z,14.71
2017-04-02T08:01:36.756Z,14.71
2017-04-02T08:02:37.287Z,14.89
2017-04-02T08:03:37.812Z,15.06
2017-04-02T08:04:38.319Z,14.86
2017-04-02T08:05:38.700Z,14.61
2017-04-02T08:06:39.366Z,14.73
2017-04-02T08:07:39.739Z,14.79
2017-04-02T08:08:40.275Z,14.89
2017-04-02T08:09:40.928Z,14.95
2017-04-02T08:10:41.447Z,14.89
2017-04-02T08:11:41.963Z,14.94
2017-04-02T08:12:42.489Z,14.86
2017-04-02T08:13:42.855Z,14.96
2017-04-02T08:14:43.385Z,15.04
2017-04-02T08:15:44.040Z,15.06
2017-04-02T08:16:44.563Z,15.00
2017-04-02T08:17:44.953Z,14.75
2017-04-02T08:18:45.603Z,14.79
2017-04-02T08:19:46.122Z,14.69
2017-04-02T08:20:46.513Z,14.71
2017-04-02T08:21:47.159Z,14.58
2017-04-02T08:22:47.548Z,14.55
2017-04-02T08:23:48.052Z,14.64
2017-04-02T08:24:48.717Z,14.69
2017-04-02T08:25:49.109Z,14.65
2017-04-02T08:26:49.626Z,14.75
2017-04-02T08:27:50.275Z,14.73
2017-04-02T08:28:50.792Z,14.83
2017-04-02T08:29:51.312Z,15.04
2017-04-02T08:30:51.716Z,15.04
2017-04-02T08:31:52.349Z,15.15
2017-04-02T08:32:52.866Z,15.39
2017-04-02T08:33:53.390Z,15.57
2017-04-02T08:34:53.775Z,15.44
2017-04-02T08:35:54.440Z,15.36
2017-04-02T08:36:54.952Z,15.19
2017-04-02T08:37:55.477Z,15.02
2017-04-02T08:38:55.850Z,15.03
2017-04-02T08:39:56.369Z,14.94
2017-04-02T08:40:56.891Z,14.95
2017-04-02T08:41:57.548Z,15.15
2017-04-02T08:42:58.067Z,15.29
2017-04-02T08:43:58.597Z,15.39
2017-04-02T08:58:52.729Z,14.84
2017-04-02T08:59:53.371Z,14.83
2017-04-02T09:00:53.758Z,14.86
2017-04-02T09:01:54.287Z,14.91
2017-04-02T09:02:54.925Z,14.79
2017-04-02T09:03:55.476Z,14.78
2017-04-02T09:04:55.975Z,14.83
2017-04-02T09:05:56.485Z,14.80
2017-04-02T09:06:56.869Z,14.80
2017-04-02T09:07:57.519Z,14.86
2017-04-02T09:08:58.041Z,14.94
2017-04-02T09:09:58.569Z,14.91
2017-04-02T09:10:59.070Z,14.82
2017-04-02T09:11:59.593Z,14.75
2017-04-02T09:13:00.124Z,15.07
2017-04-02T09:14:00.640Z,15.36
2017-04-02T09:15:01.161Z,15.50
2017-04-02T09:16:01.661Z,15.48
2017-04-02T09:17:02.187Z,15.44
2017-04-02T09:18:02.697Z,15.75
2017-04-02T09:19:03.225Z,15.93
2017-04-02T09:20:03.748Z,15.88
2017-04-02T09:21:04.249Z,15.83
2017-04-02T09:22:04.775Z,15.83
2017-04-02T09:23:05.297Z,15.94
2017-04-02T09:24:05.801Z,16.14
2017-04-02T09:25:06.332Z,16.09
2017-04-02T09:26:06.852Z,15.88
2017-04-02T09:27:07.358Z,15.80
2017-04-02T09:28:07.880Z,15.76
2017-04-02T09:29:08.410Z,15.90
2017-04-02T09:30:08.795Z,16.02
2017-04-02T09:31:09.460Z,16.17
2017-04-02T09:32:09.840Z,16.07
2017-04-02T09:33:10.494Z,15.99
2017-04-02T09:34:10.878Z,15.99
2017-04-02T09:35:11.528Z,16.07
2017-04-02T09:36:12.034Z,16.38
2017-04-02T09:37:12.555Z,16.66
2017-04-02T09:38:12.951Z,16.50
2017-04-02T09:39:13.595Z,16.58
2017-04-02T09:40:14.113Z,16.66
2017-04-02T09:41:14.498Z,16.95
2017-04-02T09:42:15.148Z,17.12
2017-04-02T09:43:15.675Z,17.08
2017-04-02T09:44:16.063Z,16.98
2017-04-02T09:45:17.619Z,16.99
2017-04-02T09:46:17.097Z,16.91
2017-04-02T09:47:17.734Z,16.76
2017-04-02T09:48:18.275Z,16.43
2017-04-02T09:49:18.795Z,16.25
2017-04-02T09:50:19.154Z,16.00
2017-04-02T09:51:19.678Z,15.66
2017-04-02T09:52:20.344Z,15.51
2017-04-02T09:53:20.732Z,15.68
2017-04-02T09:54:21.241Z,15.86
2017-04-02T09:55:21.755Z,16.00
2017-04-02T09:56:22.408Z,16.24
2017-04-02T09:57:22.779Z,16.27
2017-04-02T09:58:23.308Z,16.17
2017-04-02T09:59:23.837Z,16.18
2017-04-02T10:00:24.361Z,16.31
2017-04-02T10:02:25.425Z,16.28
2017-04-02T10:03:25.955Z,16.06
2017-04-02T10:04:26.481Z,15.84
2017-04-02T10:05:27.009Z,16.07
2017-04-02T10:06:27.688Z,16.17
2017-04-02T10:07:28.104Z,16.51
2017-04-02T10:08:28.603Z,16.74
2017-04-02T10:09:29.136Z,16.80
2017-04-02T10:10:29.675Z,16.94
2017-04-02T10:11:30.208Z,17.22
2017-04-02T10:12:30.740Z,17.16
2017-04-02T10:13:31.303Z,17.02
2017-04-02T10:14:31.796Z,17.01
2017-04-02T10:15:32.330Z,17.20
2017-04-02T10:16:32.857Z,17.32
2017-04-02T10:17:33.390Z,17.61
2017-04-02T10:18:33.926Z,17.75
2017-04-02T10:19:34.467Z,17.39
2017-04-02T10:20:34.974Z,17.79
2017-04-02T10:21:35.655Z,17.96
2017-04-02T10:22:36.068Z,17.98
2017-04-02T10:23:36.570Z,18.20
2017-04-02T10:24:37.098Z,18.54
2017-04-02T10:25:37.632Z,18.70
2017-04-02T10:26:38.163Z,18.99
2017-04-02T10:27:38.692Z,18.73
2017-04-02T10:28:39.222Z,18.34
2017-04-02T10:29:39.748Z,18.12
2017-04-02T10:30:40.284Z,17.37
2017-04-02T10:31:40.813Z,16.94
2017-04-02T10:32:41.342Z,17.05
2017-04-02T10:33:41.871Z,17.20
2017-04-02T10:34:42.557Z,17.33
2017-04-02T10:35:42.930Z,17.42
2017-04-02T10:36:43.463Z,17.39
2017-04-02T10:37:43.990Z,17.76
2017-04-02T10:38:44.520Z,17.88
2017-04-02T10:39:45.052Z,17.69
2017-04-02T10:40:45.580Z,17.84
2017-04-02T10:41:46.111Z,18.17
2017-04-02T10:42:46.638Z,18.38
2017-04-02T10:43:47.172Z,18.18
2017-04-02T10:44:47.702Z,18.24
2017-04-02T10:45:48.246Z,18.58
2017-04-02T10:46:48.910Z,18.86
2017-04-02T10:47:49.293Z,18.46
2017-04-02T10:48:49.833Z,18.29
2017-04-02T10:49:50.358Z,17.98
2017-04-02T10:50:50.894Z,17.61
2017-04-02T10:51:51.587Z,17.65
2017-04-02T10:52:51.957Z,17.47
2017-04-02T10:53:52.491Z,17.65
2017-04-02T10:54:53.033Z,17.53
2017-04-02T10:55:53.554Z,17.43
2017-04-02T10:56:54.083Z,16.94
2017-04-02T10:57:54.614Z,16.73
2017-04-02T10:58:55.147Z,16.52
2017-04-02T10:59:55.675Z,16.38
2017-04-02T11:00:56.210Z,16.29
2017-04-02T11:01:56.731Z,16.13
2017-04-02T11:02:57.259Z,16.18
2017-04-02T11:03:57.788Z,16.10
2017-04-02T11:04:58.317Z,16.10
2017-04-02T11:05:58.846Z,16.28
2017-04-02T11:06:59.408Z,16.46
2017-04-02T11:07:59.907Z,16.61
2017-04-02T11:09:00.435Z,16.77
2017-04-02T11:10:00.966Z,16.91
2017-04-02T11:11:01.502Z,16.91
2017-04-02T11:12:02.032Z,16.81
2017-04-02T11:13:02.556Z,17.02
2017-04-02T11:14:03.085Z,16.77
2017-04-02T11:15:03.607Z,16.79
2017-04-02T11:16:04.145Z,16.85
2017-04-02T11:17:04.671Z,16.95
2017-04-02T11:18:05.202Z,17.18
2017-04-02T11:19:05.757Z,17.26
2017-04-02T11:20:06.263Z,17.10
2017-04-02T11:21:06.791Z,17.05
2017-04-02T11:22:07.318Z,16.98
2017-04-02T11:23:07.848Z,16.83
2017-04-02T11:24:08.379Z,16.77
2017-04-02T11:25:08.904Z,16.65
2017-04-02T11:26:09.435Z,16.46
2017-04-02T11:27:10.137Z,16.48
2017-04-02T11:28:10.494Z,16.44
2017-04-02T11:29:11.022Z,16.33
2017-04-02T11:30:11.552Z,16.44
2017-04-02T11:31:12.247Z,16.41
2017-04-02T11:32:12.619Z,16.32
2017-04-02T11:33:13.156Z,16.22
2017-04-02T11:34:13.687Z,16.18
2017-04-02T11:35:14.214Z,16.00
2017-04-02T11:36:14.744Z,15.97
2017-04-02T11:37:15.274Z,16.07
2017-04-02T11:38:15.809Z,16.25
2017-04-02T11:39:16.367Z,16.29
2017-04-02T11:40:16.871Z,16.39
2017-04-02T11:41:17.549Z,16.35
2017-04-02T11:42:17.928Z,16.55
2017-04-02T11:43:18.456Z,16.85
2017-04-02T11:44:18.990Z,17.09
2017-04-02T11:45:19.519Z,17.06
2017-04-02T11:46:20.048Z,17.21
2017-04-02T11:47:20.727Z,17.37
2017-04-02T11:48:21.109Z,17.16
2017-04-02T11:49:21.636Z,17.05
2017-04-02T11:50:22.168Z,16.99
2017-04-02T11:51:22.699Z,17.06
2017-04-02T11:52:23.228Z,17.05
2017-04-02T11:53:23.757Z,16.81
2017-04-02T11:54:24.292Z,16.68
2017-04-02T11:55:24.814Z,16.38
2017-04-02T11:56:25.346Z,16.47
2017-04-02T11:57:25.873Z,16.61
2017-04-02T11:58:26.404Z,16.61
2017-04-02T11:59:26.931Z,16.94
2017-04-02T12:00:27.461Z,16.81
2017-04-02T12:01:28.142Z,16.85
2017-04-02T12:02:28.523Z,16.90
2017-04-02T12:03:29.048Z,16.83
2017-04-02T12:04:29.584Z,16.88
2017-04-02T12:05:30.113Z,16.77
2017-04-02T12:06:30.791Z,16.68
2017-04-02T12:07:31.173Z,16.79
2017-04-02T12:08:31.703Z,16.98
2017-04-02T12:09:32.233Z,16.99
2017-04-02T12:10:32.766Z,17.22
2017-04-02T12:11:33.294Z,17.32
2017-04-02T12:12:33.831Z,17.54
2017-04-02T12:13:34.509Z,17.54
2017-04-02T12:14:35.038Z,17.62
2017-04-02T12:15:35.423Z,17.65
2017-04-02T12:16:35.953Z,17.68
2017-04-02T12:17:36.483Z,17.62
2017-04-02T12:18:37.010Z,17.49
2017-04-02T12:19:37.532Z,17.65
2017-04-02T12:20:38.067Z,17.66
2017-04-02T12:21:38.744Z,17.53
2017-04-02T12:22:39.122Z,17.36
2017-04-02T12:23:39.670Z,17.37
2017-04-02T12:24:40.187Z,17.28
2017-04-02T12:25:40.713Z,17.09
2017-04-02T12:26:41.243Z,16.99
2017-04-02T12:27:41.926Z,17.03
2017-04-02T12:28:42.302Z,17.10
2017-04-02T12:29:42.865Z,17.18
2017-04-02T12:30:43.361Z,17.29
2017-04-02T12:31:43.892Z,17.29
2017-04-02T12:32:44.418Z,17.32
2017-04-02T12:33:44.948Z,17.43
2017-04-02T12:34:45.482Z,17.53
2017-04-02T12:35:46.009Z,17.50
2017-04-02T12:36:46.541Z,17.46
2017-04-02T12:37:47.075Z,17.46
2017-04-02T12:38:47.600Z,17.36
2017-04-02T12:39:48.126Z,17.24
2017-04-02T12:40:48.660Z,17.21
2017-04-02T12:41:49.187Z,17.35
2017-04-02T12:42:49.717Z,17.40
2017-04-02T12:43:50.246Z,17.42
2017-04-02T12:44:50.775Z,17.33
2017-04-02T12:45:51.455Z,16.99
2017-04-02T12:46:51.831Z,16.77
2017-04-02T12:47:52.355Z,16.74
2017-04-02T12:48:52.892Z,16.52
2017-04-02T12:49:53.419Z,16.50
2017-04-02T12:50:54.104Z,16.57
2017-04-02T12:51:54.486Z,16.66
2017-04-02T12:52:55.021Z,16.70
2017-04-02T12:53:55.887Z,16.74
2017-04-02T12:54:56.087Z,16.70
2017-04-02T12:55:56.617Z,16.76
2017-04-02T12:56:57.148Z,16.72
2017-04-02T12:57:57.672Z,16.85
2017-04-02T12:58:58.204Z,17.25
2017-04-02T12:59:58.734Z,17.61
2017-04-02T13:00:59.268Z,17.73
2017-04-02T13:01:59.950Z,17.84
2017-04-02T13:03:00.318Z,17.88
2017-04-02T13:04:00.888Z,17.84
2017-04-02T13:05:01.377Z,17.96
2017-04-02T13:06:01.912Z,17.55
2017-04-02T13:07:02.439Z,17.53
2017-04-02T13:08:02.966Z,17.61
2017-04-02T13:09:03.494Z,17.35
2017-04-02T13:10:04.029Z,17.25
2017-04-02T13:11:04.557Z,17.31
2017-04-02T13:12:05.085Z,17.28
2017-04-02T13:13:05.619Z,17.14
2017-04-02T13:14:06.146Z,17.36
2017-04-02T13:15:06.680Z,17.54
2017-04-02T13:16:07.209Z,17.69
2017-04-02T13:17:07.738Z,18.06
2017-04-02T13:18:08.270Z,18.05
2017-04-02T13:19:08.804Z,18.02
2017-04-02T13:20:09.326Z,17.85
2017-04-02T13:21:09.857Z,17.54
2017-04-02T13:22:10.386Z,17.26
2017-04-02T13:23:11.062Z,17.14
2017-04-02T13:24:11.446Z,17.02
2017-04-02T13:25:11.975Z,16.94
2017-04-02T13:26:12.658Z,16.87
2017-04-02T13:27:13.034Z,16.85
2017-04-02T13:28:13.565Z,16.94
2017-04-02T13:29:14.096Z,16.91
2017-04-02T13:30:14.623Z,16.74
2017-04-02T13:31:15.151Z,16.63
2017-04-02T13:32:15.709Z,16.62
2017-04-02T13:33:16.219Z,16.58
2017-04-02T13:34:16.750Z,16.62
2017-04-02T13:35:17.323Z,16.62
2017-04-02T13:36:17.819Z,16.58
2017-04-02T13:37:18.492Z,16.55
2017-04-02T13:38:18.876Z,16.57
2017-04-02T13:39:19.403Z,16.66
2017-04-02T13:40:19.933Z,16.61
2017-04-02T13:41:20.466Z,16.51
2017-04-02T13:42:21.142Z,16.39
2017-04-02T13:43:21.527Z,16.29
2017-04-02T13:44:22.051Z,16.27
2017-04-02T13:45:22.578Z,16.17
2017-04-02T13:46:23.105Z,16.16
2017-04-02T13:47:23.637Z,16.11
2017-04-02T13:48:24.175Z,16.07
2017-04-02T13:49:24.693Z,16.09
2017-04-02T13:50:25.221Z,16.07
2017-04-02T13:51:25.753Z,16.09
2017-04-02T13:52:26.280Z,16.09
2017-04-02T13:53:26.810Z,16.06
2017-04-02T13:54:27.342Z,16.10
2017-04-02T13:55:28.019Z,16.16
2017-04-02T13:56:28.405Z,16.16
2017-04-02T13:57:28.934Z,16.18
2017-04-02T13:58:29.467Z,16.25
2017-04-02T13:59:29.992Z,16.28
2017-04-02T14:00:30.524Z,16.31
2017-04-02T14:01:31.198Z,16.31
2017-04-02T14:02:31.620Z,16.38
2017-04-02T14:03:32.109Z,16.58
2017-04-02T14:04:32.641Z,16.69
2017-04-02T14:05:33.464Z,16.76
2017-04-02T14:06:33.728Z,16.80
2017-04-02T14:07:34.232Z,16.80
2017-04-02T14:08:34.760Z,16.87
2017-04-02T14:09:35.286Z,16.97
2017-04-02T14:10:35.809Z,16.98
2017-04-02T14:11:36.344Z,16.95
2017-04-02T14:12:36.869Z,16.98
2017-04-02T14:13:37.571Z,17.02
2017-04-02T14:14:37.938Z,17.08
2017-04-02T14:15:38.468Z,17.01
2017-04-02T14:16:39.006Z,16.98
2017-04-02T14:17:39.539Z,16.84
2017-04-02T14:18:40.094Z,16.81
2017-04-02T14:19:40.599Z,16.72
2017-04-02T14:20:41.140Z,16.62
2017-04-02T14:21:41.659Z,16.58
2017-04-02T14:22:42.187Z,16.52
2017-04-02T14:23:42.724Z,16.55
2017-04-02T14:24:43.403Z,16.63
2017-04-02T14:25:43.926Z,16.69
2017-04-02T14:26:44.307Z,16.54
2017-04-02T14:27:44.838Z,16.46
2017-04-02T14:28:45.374Z,16.36
2017-04-02T14:29:45.897Z,16.33
2017-04-02T14:30:46.579Z,16.38
2017-04-02T14:31:46.961Z,16.51
2017-04-02T14:32:47.487Z,16.59
2017-04-02T14:33:48.025Z,16.72
2017-04-02T14:34:48.555Z,16.80
2017-04-02T14:35:49.083Z,16.83
2017-04-02T14:36:49.619Z,16.81
2017-04-02T14:37:50.142Z,16.68
2017-04-02T14:38:50.687Z,16.59
2017-04-02T14:39:51.812Z,16.50
2017-04-02T14:40:51.735Z,16.38
2017-04-02T14:41:52.268Z,16.43
2017-04-02T14:42:52.801Z,16.43
2017-04-02T14:43:53.329Z,16.46
2017-04-02T14:44:54.008Z,16.58
2017-04-02T14:45:54.387Z,16.85
2017-04-02T14:46:54.918Z,16.98
2017-04-02T14:47:55.488Z,17.12
2017-04-02T14:48:55.977Z,17.33
2017-04-02T14:49:56.509Z,17.53
2017-04-02T14:50:57.041Z,17.68
2017-04-02T14:51:57.716Z,17.69
2017-04-02T14:52:58.247Z,17.71
2017-04-02T14:53:58.628Z,17.66
2017-04-02T14:54:59.311Z,17.69
2017-04-02T14:55:59.692Z,17.96
2017-04-02T14:57:00.376Z,18.16
2017-04-02T14:58:00.905Z,18.14
2017-04-02T14:59:01.288Z,18.23
2017-04-02T15:00:01.821Z,18.13
2017-04-02T15:01:02.353Z,17.96
2017-04-02T15:02:02.879Z,17.94
2017-04-02T15:03:03.408Z,17.94
2017-04-02T15:04:03.942Z,17.95
2017-04-02T15:05:04.471Z,17.92
2017-04-02T15:06:04.999Z,17.89
2017-04-02T15:07:05.530Z,17.89
2017-04-02T15:08:06.056Z,17.99
2017-04-02T15:09:06.586Z,17.87
2017-04-02T15:10:07.116Z,17.92
2017-04-02T15:11:07.643Z,17.98
2017-04-02T15:12:08.172Z,17.89
2017-04-02T15:13:08.707Z,17.80
2017-04-02T15:14:09.242Z,17.60
2017-04-02T15:15:09.764Z,17.64
2017-04-02T15:16:10.292Z,17.73
2017-04-02T15:17:10.820Z,17.77
2017-04-02T15:18:11.354Z,17.71
2017-04-02T15:19:11.885Z,17.57
2017-04-02T15:20:12.410Z,17.44
2017-04-02T15:21:12.942Z,17.26
2017-04-02T15:22:13.469Z,17.31
2017-04-02T15:23:14.001Z,17.24
2017-04-02T15:24:14.529Z,17.20
2017-04-02T15:25:15.058Z,17.32
2017-04-02T15:26:15.736Z,17.36
2017-04-02T15:27:16.119Z,17.44
2017-04-02T15:28:16.652Z,17.60
2017-04-02T15:29:17.171Z,17.61
2017-04-02T15:30:17.708Z,17.64
2017-04-02T15:31:18.236Z,17.75
2017-04-02T15:32:18.767Z,17.89
2017-04-02T15:33:19.450Z,18.02
2017-04-02T15:34:19.831Z,18.03
2017-04-02T15:35:20.514Z,18.00
2017-04-02T15:36:20.893Z,17.88
2017-04-02T15:37:21.436Z,17.65
2017-04-02T15:38:21.958Z,17.46
2017-04-02T15:39:22.490Z,17.21
2017-04-02T15:40:23.025Z,17.09
2017-04-02T15:41:23.560Z,16.92
2017-04-02T15:42:24.085Z,16.80
2017-04-02T15:43:24.613Z,16.77
2017-04-02T15:44:25.289Z,16.80
2017-04-02T15:45:25.692Z,16.73
2017-04-02T15:46:26.209Z,16.73
2017-04-02T15:47:26.734Z,16.83
2017-04-02T15:48:27.865Z,16.83
2017-04-02T15:49:28.128Z,16.83
2017-04-02T15:50:28.326Z,16.83
2017-04-02T15:51:28.855Z,16.95
2017-04-02T15:52:29.387Z,17.06
2017-04-02T15:53:29.925Z,17.18
2017-04-02T15:54:30.446Z,17.35
2017-04-02T15:55:31.128Z,17.36
2017-04-02T15:56:31.659Z,17.46
2017-04-02T15:57:32.042Z,17.43
2017-04-02T15:58:32.569Z,17.42
2017-04-02T15:59:33.136Z,17.43
2017-04-02T16:00:33.632Z,17.46
2017-04-02T16:01:34.165Z,17.53
2017-04-02T16:02:34.694Z,17.61
2017-04-02T16:03:35.368Z,17.71
2017-04-02T16:04:35.756Z,17.71
2017-04-02T16:05:36.312Z,17.71
2017-04-02T16:06:36.809Z,17.65
2017-04-02T16:07:37.338Z,17.64
2017-04-02T16:08:37.875Z,17.66
2017-04-02T16:09:38.400Z,17.58
2017-04-02T16:10:38.935Z,17.43
2017-04-02T16:11:39.474Z,17.40
2017-04-02T16:12:40.141Z,17.47
2017-04-02T16:13:40.521Z,17.43
2017-04-02T16:14:41.065Z,17.39
2017-04-02T16:15:41.742Z,17.36
2017-04-02T16:16:42.121Z,17.46
2017-04-02T16:17:42.656Z,17.44
2017-04-02T16:18:43.187Z,17.42
2017-04-02T16:19:43.742Z,17.43
2017-04-02T16:20:44.246Z,17.47
2017-04-02T16:21:44.925Z,17.46
2017-04-02T16:22:45.306Z,17.44
2017-04-02T16:23:45.834Z,17.46
2017-04-02T16:24:46.366Z,17.47
2017-04-02T16:25:46.900Z,17.39
2017-04-02T16:26:47.430Z,17.36
2017-04-02T16:27:47.954Z,17.35
2017-04-02T16:28:48.510Z,17.37
2017-04-02T16:29:49.015Z,17.43
2017-04-02T16:30:49.547Z,17.42
2017-04-02T16:31:50.079Z,17.43
2017-04-02T16:32:50.754Z,17.39
2017-04-02T16:33:51.151Z,17.42
2017-04-02T16:34:51.669Z,17.42
2017-04-02T16:35:52.198Z,17.44
2017-04-02T16:36:52.735Z,17.46
2017-04-02T16:37:53.260Z,17.53
2017-04-02T16:38:53.793Z,17.50
2017-04-02T16:39:54.319Z,17.47
2017-04-02T16:40:54.853Z,17.37
2017-04-02T16:41:55.385Z,17.39
2017-04-02T16:42:55.914Z,17.32
2017-04-02T16:43:56.444Z,17.31
2017-04-02T16:44:56.972Z,17.29
2017-04-02T16:45:57.501Z,17.18
2017-04-02T16:46:58.036Z,17.10
2017-04-02T16:47:58.712Z,16.95
2017-04-02T16:48:59.091Z,16.85
2017-04-02T16:49:59.631Z,16.74
2017-04-02T16:51:00.156Z,16.62
2017-04-02T16:52:00.681Z,16.54
2017-04-02T16:53:01.220Z,16.50
2017-04-02T16:54:01.780Z,16.43
2017-04-02T16:55:02.280Z,16.35
2017-04-02T16:56:02.963Z,16.31
2017-04-02T16:57:03.355Z,16.27
2017-04-02T16:58:03.911Z,16.21
2017-04-02T16:59:04.423Z,16.16
2017-04-02T17:00:04.955Z,16.09
2017-04-02T17:01:05.483Z,16.06
2017-04-02T17:02:06.022Z,16.05
2017-04-02T17:03:06.546Z,15.99
2017-04-02T17:04:07.111Z,15.91
2017-04-02T17:05:07.618Z,15.86
2017-04-02T17:06:08.292Z,15.82
2017-04-02T17:07:08.672Z,15.79
2017-04-02T17:08:09.347Z,15.77
2017-04-02T17:09:09.726Z,15.75
2017-04-02T17:10:10.258Z,15.69
2017-04-02T17:11:10.790Z,15.64
2017-04-02T17:12:11.322Z,15.59
2017-04-02T17:13:11.858Z,15.55
2017-04-02T17:14:12.384Z,15.53
2017-04-02T17:15:13.061Z,15.51
2017-04-02T17:16:13.454Z,15.50
2017-04-02T17:17:13.979Z,15.46
2017-04-02T17:18:14.658Z,15.44
2017-04-02T17:19:15.041Z,15.39
2017-04-02T17:20:15.567Z,15.37
2017-04-02T17:21:16.102Z,15.36
2017-04-02T17:22:16.630Z,15.33
2017-04-02T17:23:17.160Z,15.26
2017-04-02T17:24:17.689Z,15.21
2017-04-02T17:25:18.223Z,15.14
2017-04-02T17:26:18.749Z,15.11
2017-04-02T17:27:19.280Z,15.03
2017-04-02T17:28:19.808Z,14.95
2017-04-02T17:29:20.339Z,14.92
2017-04-02T17:30:20.917Z,14.87
2017-04-02T17:31:21.400Z,14.84
2017-04-02T17:32:21.936Z,14.83
2017-04-02T17:33:22.461Z,14.82
2017-04-02T17:34:22.986Z,14.82
2017-04-02T17:35:23.665Z,14.78
2017-04-02T17:36:24.054Z,14.73
2017-04-02T17:37:24.589Z,14.68
2017-04-02T17:38:25.121Z,14.61
2017-04-02T17:39:25.665Z,14.51
2017-04-02T17:40:26.191Z,14.42
2017-04-02T17:41:26.722Z,14.31
2017-04-02T17:42:27.254Z,14.21
2017-04-02T17:43:27.784Z,14.07
2017-04-02T17:44:28.311Z,13.95
2017-04-02T17:45:28.841Z,13.84
2017-04-02T17:46:29.523Z,13.75
2017-04-02T17:47:29.902Z,13.64
2017-04-02T17:48:30.579Z,13.53
2017-04-02T17:49:30.959Z,13.46
2017-04-02T17:50:31.486Z,13.36
2017-04-02T17:51:32.023Z,13.29
2017-04-02T17:52:32.546Z,13.23
2017-04-02T17:53:33.081Z,13.12
2017-04-02T17:54:33.610Z,13.02
2017-04-02T17:55:34.144Z,12.96
2017-04-02T17:56:34.670Z,12.87
2017-04-02T17:57:35.200Z,12.79
2017-04-02T17:58:35.749Z,12.72
2017-04-02T17:59:36.262Z,12.65
2017-04-02T18:00:36.791Z,12.57
2017-04-02T18:01:37.469Z,12.50
2017-04-02T18:02:37.855Z,12.42
2017-04-02T18:03:38.380Z,12.33
2017-04-02T18:04:38.943Z,12.29
2017-04-02T18:05:39.442Z,12.31
2017-04-02T18:06:39.976Z,12.29
2017-04-02T18:07:40.506Z,12.24
2017-04-02T18:08:41.032Z,12.18
2017-04-02T18:09:41.564Z,12.12
2017-04-02T18:10:42.097Z,12.05
2017-04-02T18:11:42.627Z,11.99
2017-04-02T18:12:43.155Z,11.91
2017-04-02T18:13:43.684Z,11.83
2017-04-02T18:14:44.214Z,11.76
2017-04-02T18:15:44.748Z,11.67
2017-04-02T18:16:45.277Z,11.57
2017-04-02T18:17:45.807Z,11.50
2017-04-02T18:18:46.496Z,11.45
2017-04-02T18:19:46.878Z,11.38
2017-04-02T18:20:47.427Z,11.31
2017-04-02T18:21:47.956Z,11.25
2017-04-02T18:22:48.482Z,11.20
2017-04-02T18:23:49.018Z,11.13
2017-04-02T18:24:49.543Z,11.06
2017-04-02T18:25:50.073Z,11.00
2017-04-02T18:26:50.761Z,10.95
2017-04-02T18:27:51.135Z,10.87
2017-04-02T18:28:51.670Z,10.83
2017-04-02T18:29:52.229Z,10.72
2017-04-02T18:30:52.878Z,10.64
2017-04-02T18:31:53.259Z,10.58
2017-04-02T18:32:53.786Z,10.53
2017-04-02T18:33:54.322Z,10.46
2017-04-02T18:34:54.855Z,10.36
2017-04-02T18:35:55.376Z,10.32
2017-04-02T18:36:56.055Z,10.24
2017-04-02T18:37:56.434Z,10.17
2017-04-02T18:38:57.116Z,10.09
2017-04-02T18:39:57.501Z,10.01
2017-04-02T18:40:58.184Z,9.95
2017-04-02T18:41:58.561Z,9.87
2017-04-02T18:42:59.091Z,9.79
2017-04-02T18:43:59.622Z,9.75
2017-04-02T18:45:00.156Z,9.75
2017-04-02T18:46:00.690Z,9.73
2017-04-02T18:47:01.229Z,9.73
2017-04-02T18:48:01.774Z,9.71
2017-04-02T18:49:02.284Z,9.66
2017-04-02T18:50:02.852Z,9.60
2017-04-02T18:51:03.341Z,9.53
2017-04-02T18:52:03.874Z,9.46
2017-04-02T18:53:04.406Z,9.42
2017-04-02T18:54:04.930Z,9.38
2017-04-02T18:55:05.462Z,9.34
2017-04-02T18:56:05.994Z,9.31
2017-04-02T18:57:06.521Z,9.30
2017-04-02T18:58:07.056Z,9.25
2017-04-02T18:59:07.593Z,9.22
2017-04-02T19:00:08.160Z,9.20
2017-04-02T19:01:08.656Z,9.18
2017-04-02T19:02:09.191Z,9.12
2017-04-02T19:03:09.723Z,9.07
2017-04-02T19:04:10.253Z,9.01
2017-04-02T19:05:10.785Z,8.94
2017-04-02T19:06:11.317Z,8.90
2017-04-02T19:07:11.845Z,8.85
2017-04-02T19:08:12.383Z,8.82
2017-04-02T19:09:12.906Z,8.80
2017-04-02T19:10:13.452Z,8.75
2017-04-02T19:11:13.969Z,8.76
2017-04-02T19:12:14.502Z,8.76
2017-04-02T19:13:15.029Z,8.74
2017-04-02T19:14:15.561Z,8.72
2017-04-02T19:15:16.088Z,8.69
2017-04-02T19:16:16.622Z,8.65
2017-04-02T19:17:17.155Z,8.62
2017-04-02T19:18:17.684Z,8.57
2017-04-02T19:19:18.214Z,8.56
2017-04-02T19:20:18.750Z,8.50
2017-04-02T19:21:19.429Z,8.42
2017-04-02T19:22:19.814Z,8.35
2017-04-02T19:23:20.342Z,8.31
2017-04-02T19:24:20.876Z,8.24
2017-04-02T19:25:21.403Z,8.19
2017-04-02T19:26:21.936Z,8.11
2017-04-02T19:27:22.614Z,8.05
2017-04-02T19:28:23.002Z,7.98
2017-04-02T19:29:23.523Z,7.90
2017-04-02T19:30:24.204Z,7.86
2017-04-02T19:31:24.584Z,7.79
2017-04-02T19:32:25.120Z,7.74
2017-04-02T19:33:25.796Z,7.71
2017-04-02T19:34:26.178Z,7.68
2017-04-02T19:35:26.705Z,7.70
2017-04-02T19:36:27.242Z,7.70
2017-04-02T19:37:27.921Z,7.70
2017-04-02T19:38:28.316Z,7.68
2017-04-02T19:39:28.851Z,7.65
2017-04-02T19:40:29.378Z,7.63
2017-04-02T19:41:29.922Z,7.68
2017-04-02T19:42:30.447Z,7.68
2017-04-02T19:43:30.973Z,7.67
2017-04-02T19:44:31.501Z,7.67
2017-04-02T19:45:32.180Z,7.67
2017-04-02T19:46:32.556Z,7.68
2017-04-02T19:47:33.097Z,7.67
2017-04-02T19:48:33.649Z,7.70
2017-04-02T19:49:34.149Z,7.70
2017-04-02T19:50:34.676Z,7.68
2017-04-02T19:51:35.204Z,7.65
2017-04-02T19:52:35.741Z,7.63
2017-04-02T19:53:36.265Z,7.53
2017-04-02T19:54:36.797Z,7.56
2017-04-02T19:55:37.330Z,7.60
2017-04-02T19:56:37.887Z,7.58
2017-04-02T19:57:38.544Z,7.52
2017-04-02T19:58:38.924Z,7.49
2017-04-02T19:59:39.452Z,7.51
2017-04-02T20:00:39.984Z,7.52
2017-04-02T20:01:40.515Z,7.51
2017-04-02T20:02:41.047Z,7.49
2017-04-02T20:03:41.569Z,7.45
2017-04-02T20:04:42.104Z,7.42
2017-04-02T20:05:42.668Z,7.40
2017-04-02T20:06:43.166Z,7.34
2017-04-02T20:07:43.691Z,7.35
2017-04-02T20:08:44.224Z,7.33
2017-04-02T20:09:44.760Z,7.29
2017-04-02T20:10:45.285Z,7.22
2017-04-02T20:11:45.812Z,7.15
2017-04-02T20:12:46.346Z,7.08
2017-04-02T20:13:48.225Z,7.01
2017-04-02T20:14:47.400Z,6.95
2017-04-02T20:15:47.928Z,6.91
2017-04-02T20:16:48.463Z,6.97
2017-04-02T20:17:48.991Z,6.94
2017-04-02T20:18:49.532Z,6.89
2017-04-02T20:19:50.060Z,6.82
2017-04-02T20:20:50.748Z,6.77
2017-04-02T20:21:51.136Z,6.72
2017-04-02T20:22:51.674Z,6.68
2017-04-02T20:23:52.226Z,6.67
2017-04-02T20:24:52.733Z,6.63
2017-04-02T20:25:53.266Z,6.60
2017-04-02T20:26:53.792Z,6.60
2017-04-02T20:27:54.324Z,6.64
2017-04-02T20:28:54.855Z,6.70
2017-04-02T20:29:55.385Z,6.71
2017-04-02T20:30:55.912Z,6.72
2017-04-02T20:31:56.443Z,6.74
2017-04-02T20:32:56.973Z,6.71
2017-04-02T20:33:57.508Z,6.70
2017-04-02T20:34:58.035Z,6.68
2017-04-02T20:35:58.567Z,6.64
2017-04-02T20:36:59.244Z,6.61
2017-04-02T20:37:59.623Z,6.60